createdAt,value
2022-08-08T00:02:03.387Z,100416.72
2022-08-08T00:04:49.436Z,100426.53
2022-08-08T00:07:33.672Z,100415.97
2022-08-08T00:10:13.581Z,100414.16
2022-08-08T00:14:17.225Z,100414.16
2022-08-08T00:16:25.136Z,100316.88
2022-08-08T00:19:13.968Z,100391.00
2022-08-08T00:21:50.053Z,100379.91
2022-08-08T00:24:35.255Z,100344.28
2022-08-08T00:27:08.215Z,100412.38
2022-08-08T00:29:42.350Z,100359.44
2022-08-08T00:32:36.999Z,100322.84
2022-08-08T00:35:22.798Z,100403.88
2022-08-08T00:38:16.946Z,100424.94
2022-08-08T00:41:14.802Z,100386.53
2022-08-08T00:44:01.300Z,100409.28
2022-08-08T00:46:59.763Z,100416.41
2022-08-08T00:49:50.410Z,100379.09
2022-08-08T00:52:40.307Z,100409.50
2022-08-08T00:55:53.365Z,100383.25
2022-08-08T00:58:54.784Z,100406.75
2022-08-08T01:01:38.397Z,100383.47
2022-08-08T01:05:08.935Z,100424.41
2022-08-08T01:07:58.559Z,100417.38
2022-08-08T01:10:52.419Z,100420.06
2022-08-08T01:13:58.231Z,100421.72
2022-08-08T01:17:12.185Z,100428.78
2022-08-08T01:20:03.763Z,100420.06
2022-08-08T01:23:06.123Z,100439.34
2022-08-08T01:26:15.840Z,100425.28
2022-08-08T01:29:05.656Z,100426.22
2022-08-08T01:32:16.058Z,100424.56
2022-08-08T01:34:57.358Z,100422.81
2022-08-08T01:38:02.163Z,100417.47
2022-08-08T01:40:58.998Z,100413.91
2022-08-08T01:43:50.620Z,100416.59
2022-08-08T01:46:52.424Z,100416.56
2022-08-08T01:49:45.888Z,100332.97
2022-08-08T01:53:01.169Z,100413.16
2022-08-08T01:56:26.168Z,100425.41
2022-08-08T01:58:38.465Z,100337.53
2022-08-08T02:01:54.733Z,100428.94
2022-08-08T02:04:37.467Z,100421.22
2022-08-08T02:07:16.632Z,100396.97
2022-08-08T02:10:02.824Z,100424.72
2022-08-08T02:12:57.129Z,100423.72
2022-08-08T02:15:43.540Z,100414.13
2022-08-08T02:18:33.256Z,100429.00
2022-08-08T02:21:32.593Z,100345.41
2022-08-08T02:24:26.916Z,100428.06
2022-08-08T02:27:04.986Z,100282.84
2022-08-08T02:30:06.473Z,100432.66
2022-08-08T02:33:03.326Z,100442.56
2022-08-08T02:35:35.763Z,100443.41
2022-08-08T02:38:44.801Z,100445.97
2022-08-08T02:41:58.962Z,100432.75
2022-08-08T02:44:37.593Z,100443.59
2022-08-08T02:47:54.729Z,100447.06
2022-08-08T02:50:55.635Z,100357.38
2022-08-08T02:53:56.769Z,100455.91
2022-08-08T02:56:55.208Z,100452.47
2022-08-08T03:00:26.479Z,100453.47
2022-08-08T03:05:00.656Z,100457.09
2022-08-08T03:06:40.789Z,100460.00
2022-08-08T03:09:52.392Z,100404.22
2022-08-08T03:12:36.304Z,100467.19
2022-08-08T03:15:59.072Z,100476.88
2022-08-08T03:18:53.118Z,100470.69
2022-08-08T03:21:26.975Z,100472.66
2022-08-08T03:24:08.345Z,100455.38
2022-08-08T03:26:42.087Z,100445.84
2022-08-08T03:29:26.735Z,100452.94
2022-08-08T03:32:14.282Z,100441.56
2022-08-08T03:34:41.812Z,100460.88
2022-08-08T03:37:59.550Z,100505.41
2022-08-08T03:40:06.557Z,100500.25
2022-08-08T03:42:39.142Z,100509.00
2022-08-08T03:46:03.265Z,100502.91
2022-08-08T03:48:08.330Z,100505.59
2022-08-08T03:50:50.517Z,100514.44
2022-08-08T03:53:24.190Z,100516.19
2022-08-08T03:56:09.980Z,100465.59
2022-08-08T03:58:56.933Z,100454.31
2022-08-08T04:02:15.820Z,100501.41
2022-08-08T04:04:31.185Z,100513.75
2022-08-08T04:07:01.470Z,100525.94
2022-08-08T04:09:58.888Z,100503.28
2022-08-08T04:12:26.889Z,100522.50
2022-08-08T04:14:54.454Z,100374.19
2022-08-08T04:17:57.719Z,100535.53
2022-08-08T04:20:10.863Z,100511.94
2022-08-08T04:22:38.537Z,100476.22
2022-08-08T04:25:08.249Z,100517.25
2022-08-08T04:28:01.712Z,100466.63
2022-08-08T04:30:27.399Z,100534.47
2022-08-08T04:32:54.896Z,100497.09
2022-08-08T04:35:29.848Z,100446.47
2022-08-08T04:38:00.881Z,100489.25
2022-08-08T04:40:35.422Z,100537.25
2022-08-08T04:43:03.559Z,100448.22
2022-08-08T04:45:37.440Z,100541.53
2022-08-08T04:48:06.306Z,100516.25
2022-08-08T04:50:38.855Z,100473.53
2022-08-08T04:53:14.154Z,100549.44
2022-08-08T04:56:00.257Z,100531.19
2022-08-08T04:58:31.350Z,100549.53
2022-08-08T05:01:08.962Z,100548.69
2022-08-08T05:04:09.238Z,100525.16
2022-08-08T05:06:30.983Z,100556.53
2022-08-08T05:09:02.268Z,100559.16
2022-08-08T05:11:38.860Z,100572.28
2022-08-08T05:14:12.276Z,100555.59
2022-08-08T05:16:53.304Z,100559.09
2022-08-08T05:20:10.050Z,100558.97
2022-08-08T05:22:17.647Z,100512.72
2022-08-08T05:24:49.389Z,100566.84
2022-08-08T05:27:20.295Z,100561.50
2022-08-08T05:29:50.243Z,100503.06
2022-08-08T05:32:19.128Z,100516.06
2022-08-08T05:34:53.744Z,100495.13
2022-08-08T05:37:51.976Z,100513.44
2022-08-08T05:40:17.043Z,100483.75
2022-08-08T05:42:49.902Z,100554.28
2022-08-08T05:45:31.177Z,100555.94
2022-08-08T05:48:08.271Z,100555.03
2022-08-08T05:50:38.722Z,100467.59
2022-08-08T05:53:54.463Z,100552.16
2022-08-08T05:56:11.313Z,100500.56
2022-08-08T05:58:53.911Z,100550.22
2022-08-08T06:01:52.605Z,100549.34
2022-08-08T06:04:23.376Z,100556.28
2022-08-08T06:06:56.576Z,100560.69
2022-08-08T06:10:00.360Z,100524.19
2022-08-08T06:12:29.999Z,100506.72
2022-08-08T06:15:03.223Z,100581.81
2022-08-08T06:17:51.204Z,100559.97
2022-08-08T06:20:22.946Z,100567.72
2022-08-08T06:22:53.419Z,100582.53
2022-08-08T06:26:36.263Z,100490.84
2022-08-08T06:28:29.212Z,100584.97
2022-08-08T06:31:01.697Z,100583.91
2022-08-08T06:34:25.706Z,100554.44
2022-08-08T06:36:41.639Z,100592.03
2022-08-08T06:39:24.681Z,100610.53
2022-08-08T06:42:02.805Z,100610.38
2022-08-08T06:44:49.223Z,100592.88
2022-08-08T06:47:22.268Z,100541.47
2022-08-08T06:49:56.832Z,100508.31
2022-08-08T06:52:27.801Z,100591.09
2022-08-08T06:54:58.753Z,100617.25
2022-08-08T06:57:29.275Z,100386.16
2022-08-08T07:00:12.816Z,100611.91
2022-08-08T07:02:51.923Z,100549.22
2022-08-08T07:05:24.963Z,100461.06
2022-08-08T07:08:27.711Z,100611.88
2022-08-08T07:10:59.066Z,100626.91
2022-08-08T07:14:00.737Z,100619.84
2022-08-08T07:17:19.788Z,100549.03
2022-08-08T07:20:04.629Z,100624.19
2022-08-08T07:23:04.849Z,100611.06
2022-08-08T07:25:39.616Z,100560.47
2022-08-08T07:28:19.865Z,100623.34
2022-08-08T07:30:49.540Z,100550.88
2022-08-08T07:33:22.673Z,100580.59
2022-08-08T07:35:51.304Z,100584.13
2022-08-08T07:38:24.750Z,100585.03
2022-08-08T07:40:59.151Z,100544.13
2022-08-08T07:43:38.016Z,100638.38
2022-08-08T07:46:23.310Z,100630.44
2022-08-08T07:48:54.155Z,100633.94
2022-08-08T07:51:44.931Z,100624.38
2022-08-08T07:54:26.818Z,100639.19
2022-08-08T07:57:08.867Z,100633.00
2022-08-08T07:59:51.847Z,100638.28
2022-08-08T08:02:34.951Z,100560.69
2022-08-08T08:05:14.867Z,100629.53
2022-08-08T08:07:53.052Z,100654.03
2022-08-08T08:10:30.566Z,100626.78
2022-08-08T08:13:25.235Z,100630.25
2022-08-08T08:16:01.963Z,100644.25
2022-08-08T08:19:02.248Z,100629.38
2022-08-08T08:21:57.845Z,100645.22
2022-08-08T08:24:42.993Z,100640.06
2022-08-08T08:27:14.177Z,100627.81
2022-08-08T08:29:44.039Z,100559.75
2022-08-08T08:32:31.795Z,100614.72
2022-08-08T08:35:07.713Z,100498.75
2022-08-08T08:37:59.222Z,100568.31
2022-08-08T08:40:25.302Z,100638.88
2022-08-08T08:42:57.995Z,100633.59
2022-08-08T08:45:28.874Z,100643.16
2022-08-08T08:48:01.382Z,100555.66
2022-08-08T08:50:36.732Z,100587.00
2022-08-08T08:53:55.278Z,100620.00
2022-08-08T08:56:08.384Z,100639.91
2022-08-08T08:58:46.834Z,100593.81
2022-08-08T09:01:45.502Z,100613.69
2022-08-08T09:04:31.608Z,100641.47
2022-08-08T09:07:12.808Z,100554.22
2022-08-08T09:09:55.380Z,100643.03
2022-08-08T09:12:31.694Z,100649.44
2022-08-08T09:15:01.192Z,100643.38
2022-08-08T09:17:42.021Z,100510.81
2022-08-08T09:21:58.127Z,100642.00
2022-08-08T09:23:10.469Z,100629.97
2022-08-08T09:25:54.758Z,100633.25
2022-08-08T09:28:37.569Z,100577.41
2022-08-08T09:31:14.962Z,100640.03
2022-08-08T09:34:14.535Z,100602.72
2022-08-08T09:36:39.182Z,100639.47
2022-08-08T09:39:15.683Z,100644.84
2022-08-08T09:42:19.967Z,100605.69
2022-08-08T09:45:15.371Z,100524.94
2022-08-08T09:48:09.741Z,100628.81
2022-08-08T09:50:44.059Z,100635.88
2022-08-08T09:53:23.555Z,100665.66
2022-08-08T09:56:05.839Z,100662.97
2022-08-08T09:58:45.463Z,100524.41
2022-08-08T10:01:14.200Z,100650.69
2022-08-08T10:04:04.859Z,100646.47
2022-08-08T10:06:42.111Z,100650.72
2022-08-08T10:09:12.353Z,100657.91
2022-08-08T10:12:28.273Z,100520.09
2022-08-08T10:14:39.505Z,100554.19
2022-08-08T10:17:57.349Z,100551.78
2022-08-08T10:20:04.319Z,100567.38
2022-08-08T10:22:33.951Z,100618.97
2022-08-08T10:25:16.581Z,100592.94
2022-08-08T10:27:44.335Z,100616.59
2022-08-08T10:30:15.903Z,100608.78
2022-08-08T10:32:51.385Z,100657.56
2022-08-08T10:36:07.208Z,100660.25
2022-08-08T10:38:15.206Z,100666.38
2022-08-08T10:40:45.996Z,100670.84
2022-08-08T10:43:14.398Z,100531.44
2022-08-08T10:45:56.108Z,100666.69
2022-08-08T10:48:33.509Z,100679.81
2022-08-08T10:51:14.189Z,100669.34
2022-08-08T10:53:57.119Z,100655.59
2022-08-08T10:56:27.526Z,100677.31
2022-08-08T10:59:05.279Z,100591.69
2022-08-08T11:01:33.687Z,100660.59
2022-08-08T11:04:04.439Z,100668.44
2022-08-08T11:06:34.955Z,100584.66
2022-08-08T11:09:15.499Z,100627.28
2022-08-08T11:12:05.564Z,100649.81
2022-08-08T11:14:34.911Z,100651.31
2022-08-08T11:17:03.156Z,100647.81
2022-08-08T11:19:35.993Z,100577.94
2022-08-08T11:22:03.958Z,100634.56
2022-08-08T11:24:35.604Z,100629.38
2022-08-08T11:27:10.310Z,100596.31
2022-08-08T11:29:50.971Z,100620.00
2022-08-08T11:32:29.455Z,100554.59
2022-08-08T11:35:27.071Z,100648.69
2022-08-08T11:38:36.387Z,100646.19
2022-08-08T11:40:52.563Z,100651.34
2022-08-08T11:43:23.748Z,100658.31
2022-08-08T11:46:09.816Z,100618.88
2022-08-08T11:48:41.612Z,100651.31
2022-08-08T11:51:29.947Z,100647.09
2022-08-08T11:54:01.279Z,100580.53
2022-08-08T11:56:34.952Z,100661.56
2022-08-08T11:59:12.287Z,100657.03
2022-08-08T12:01:39.530Z,100622.28
2022-08-08T12:04:08.647Z,100639.63
2022-08-08T12:06:35.694Z,100565.63
2022-08-08T12:09:08.600Z,100639.00
2022-08-08T12:11:41.879Z,100636.22
2022-08-08T12:14:11.789Z,100545.53
2022-08-08T12:16:49.009Z,100644.78
2022-08-08T12:19:16.350Z,100612.47
2022-08-08T12:22:09.005Z,100625.47
2022-08-08T12:24:54.301Z,100606.34
2022-08-08T12:27:26.700Z,100632.47
2022-08-08T12:29:56.727Z,100470.56
2022-08-08T12:32:23.879Z,100652.69
2022-08-08T12:35:04.432Z,100565.25
2022-08-08T12:37:41.284Z,100587.00
2022-08-08T12:40:23.896Z,100630.34
2022-08-08T12:42:52.627Z,100633.94
2022-08-08T12:45:59.155Z,100533.59
2022-08-08T12:48:36.923Z,100603.41
2022-08-08T12:51:10.786Z,100630.59
2022-08-08T12:53:57.483Z,100651.47
2022-08-08T12:56:37.658Z,100586.16
2022-08-08T12:59:20.571Z,100646.28
2022-08-08T13:02:06.853Z,100550.41
2022-08-08T13:04:34.587Z,100647.22
2022-08-08T13:07:11.960Z,100587.72
2022-08-08T13:10:04.506Z,100640.88
2022-08-08T13:12:36.186Z,100579.00
2022-08-08T13:15:16.761Z,100644.25
2022-08-08T13:18:07.874Z,100616.34
2022-08-08T13:20:31.818Z,100555.38
2022-08-08T13:23:30.214Z,100629.44
2022-08-08T13:25:50.448Z,100640.75
2022-08-08T13:28:31.836Z,100643.47
2022-08-08T13:31:01.860Z,100593.81
2022-08-08T13:33:42.690Z,100595.41
2022-08-08T13:36:11.351Z,100639.00
2022-08-08T13:38:39.865Z,100619.78
2022-08-08T13:41:16.538Z,100632.75
2022-08-08T13:43:49.719Z,100635.16
2022-08-08T13:46:27.408Z,100612.34
2022-08-08T13:50:33.791Z,100615.78
2022-08-08T13:51:57.998Z,100620.16
2022-08-08T13:54:29.582Z,100630.63
2022-08-08T13:57:11.364Z,100621.06
2022-08-08T13:59:44.456Z,100636.00
2022-08-08T14:02:21.556Z,100639.47
2022-08-08T14:04:57.057Z,100637.66
2022-08-08T14:07:29.723Z,100624.44
2022-08-08T14:10:11.991Z,100640.13
2022-08-08T14:12:43.796Z,100644.56
2022-08-08T14:15:31.546Z,100564.22
2022-08-08T14:18:34.522Z,100633.34
2022-08-08T14:21:07.822Z,100628.22
2022-08-08T14:24:04.729Z,100602.09
2022-08-08T14:26:33.316Z,100637.72
2022-08-08T14:29:01.507Z,100634.22
2022-08-08T14:32:06.135Z,100629.75
2022-08-08T14:34:23.164Z,100629.50
2022-08-08T14:36:53.384Z,100637.81
2022-08-08T14:39:24.624Z,100555.00
2022-08-08T14:42:07.754Z,100629.97
2022-08-08T14:44:35.519Z,100543.66
2022-08-08T14:47:16.965Z,100627.50
2022-08-08T14:50:06.777Z,100624.03
2022-08-08T14:52:58.925Z,100631.53
2022-08-08T14:55:35.345Z,100631.06
2022-08-08T14:58:11.952Z,100485.50
2022-08-08T15:00:45.271Z,100623.19
2022-08-08T15:03:14.625Z,100592.75
2022-08-08T15:05:43.329Z,100584.09
2022-08-08T15:08:34.703Z,100584.09
2022-08-08T15:11:10.445Z,100626.81
2022-08-08T15:14:03.008Z,100626.81
2022-08-08T15:16:28.723Z,100623.38
2022-08-08T15:18:55.891Z,100618.91
2022-08-08T15:21:23.038Z,100617.88
2022-08-08T15:23:57.147Z,100537.72
2022-08-08T15:26:25.776Z,100612.69
2022-08-08T15:28:54.070Z,100593.50
2022-08-08T15:31:49.027Z,100618.72
2022-08-08T15:34:29.051Z,100558.69
2022-08-08T15:37:03.054Z,100567.56
2022-08-08T15:39:37.988Z,100571.06
2022-08-08T15:42:12.991Z,100589.38
2022-08-08T15:44:42.235Z,100620.84
2022-08-08T15:47:15.674Z,100555.44
2022-08-08T15:49:48.523Z,100619.09
2022-08-08T15:52:17.627Z,100619.16
2022-08-08T15:54:47.797Z,100619.19
2022-08-08T15:57:19.137Z,100593.00
2022-08-08T16:00:05.944Z,100547.69
2022-08-08T16:02:44.109Z,100586.06
2022-08-08T16:05:14.169Z,100513.72
2022-08-08T16:07:51.959Z,100610.59
2022-08-08T16:13:05.741Z,100589.72
2022-08-08T16:13:45.206Z,100556.69
2022-08-08T16:16:12.737Z,100620.34
2022-08-08T16:18:43.619Z,100617.75
2022-08-08T16:21:27.085Z,100548.06
2022-08-08T16:23:56.396Z,100589.09
2022-08-08T16:26:32.790Z,100625.84
2022-08-08T16:29:01.695Z,100597.84
2022-08-08T16:31:30.552Z,100579.41
2022-08-08T16:33:59.611Z,100612.56
2022-08-08T16:36:33.434Z,100612.63
2022-08-08T16:39:10.013Z,100594.41
2022-08-08T16:41:50.561Z,100590.13
2022-08-08T16:44:27.734Z,100616.22
2022-08-08T16:47:16.339Z,100611.06
2022-08-08T16:49:43.455Z,100625.22
2022-08-08T16:55:05.346Z,100625.28
2022-08-08T16:55:33.876Z,100591.34
2022-08-08T16:58:14.528Z,100642.09
2022-08-08T17:00:35.246Z,100641.00
2022-08-08T17:03:03.875Z,100616.88
2022-08-08T17:05:44.481Z,100619.59
2022-08-08T17:08:13.922Z,100642.34
2022-08-08T17:10:53.618Z,100627.53
2022-08-08T17:13:27.500Z,100628.47
2022-08-08T17:16:07.780Z,100634.50
2022-08-08T17:18:42.672Z,100646.75
2022-08-08T17:21:12.661Z,100616.28
2022-08-08T17:23:58.316Z,100658.22
2022-08-08T17:26:29.347Z,100637.41
2022-08-08T17:28:58.673Z,100656.66
2022-08-08T17:31:45.721Z,100593.91
2022-08-08T17:34:37.190Z,100648.03
2022-08-08T17:37:06.637Z,100615.78
2022-08-08T17:40:03.166Z,100591.31
2022-08-08T17:42:25.362Z,100667.00
2022-08-08T17:44:53.198Z,100644.53
2022-08-08T17:47:23.783Z,100659.47
2022-08-08T17:49:53.082Z,100644.59
2022-08-08T17:52:34.254Z,100639.34
2022-08-08T17:55:05.587Z,100459.72
2022-08-08T17:57:38.575Z,100661.31
2022-08-08T18:00:13.235Z,100642.19
2022-08-08T18:02:52.174Z,100657.81
2022-08-08T18:05:44.140Z,100668.41
2022-08-08T18:08:25.113Z,100569.75
2022-08-08T18:11:04.963Z,100585.66
2022-08-08T18:13:35.047Z,100662.44
2022-08-08T18:16:10.198Z,100660.75
2022-08-08T18:18:42.387Z,100636.41
2022-08-08T18:21:10.794Z,100666.94
2022-08-08T18:23:52.860Z,100629.47
2022-08-08T18:26:23.389Z,100636.53
2022-08-08T18:28:55.548Z,100650.56
2022-08-08T18:31:22.675Z,100668.06
2022-08-08T18:34:11.291Z,100654.09
2022-08-08T18:36:38.028Z,100631.38
2022-08-08T18:39:06.371Z,100661.16
2022-08-08T18:41:51.528Z,100627.09
2022-08-08T18:44:20.486Z,100591.28
2022-08-08T18:46:55.691Z,100607.00
2022-08-08T18:49:32.291Z,100590.44
2022-08-08T18:52:18.486Z,100641.09
2022-08-08T18:54:58.986Z,100588.69
2022-08-08T18:57:27.537Z,100635.03
2022-08-08T19:00:01.262Z,100656.03
2022-08-08T19:02:31.076Z,100670.09
2022-08-08T19:04:58.120Z,100622.00
2022-08-08T19:07:29.750Z,100567.03
2022-08-08T19:10:13.684Z,100596.78
2022-08-08T19:12:44.749Z,100650.91
2022-08-08T19:15:23.622Z,100650.16
2022-08-08T19:18:33.276Z,100635.22
2022-08-08T19:20:39.602Z,100649.19
2022-08-08T19:23:10.791Z,100652.69
2022-08-08T19:26:26.957Z,100570.66
2022-08-08T19:28:25.438Z,100630.88
2022-08-08T19:31:04.079Z,100664.13
2022-08-08T19:33:51.897Z,100579.44
2022-08-08T19:36:25.059Z,100568.16
2022-08-08T19:38:55.873Z,100613.53
2022-08-08T19:41:30.930Z,100586.53
2022-08-08T19:44:03.025Z,100649.38
2022-08-08T19:46:33.709Z,100530.59
2022-08-08T19:49:04.218Z,100631.03
2022-08-08T19:51:34.107Z,100629.28
2022-08-08T19:54:02.192Z,100619.66
2022-08-08T19:56:39.846Z,100543.72
2022-08-08T19:59:12.849Z,100632.88
2022-08-08T20:02:02.306Z,100648.63
2022-08-08T20:04:28.155Z,100634.66
2022-08-08T20:06:57.111Z,100592.78
2022-08-08T20:09:25.306Z,100575.31
2022-08-08T20:11:57.239Z,100543.03
2022-08-08T20:14:34.871Z,100612.09
2022-08-08T20:17:04.395Z,100630.38
2022-08-08T20:19:34.221Z,100637.44
2022-08-08T20:22:13.403Z,100610.31
2022-08-08T20:24:48.641Z,100618.25
2022-08-08T20:27:20.253Z,100524.81
2022-08-08T20:30:00.477Z,100598.16
2022-08-08T20:32:31.956Z,100551.06
2022-08-08T20:35:01.129Z,100638.41
2022-08-08T20:37:46.856Z,100646.38
2022-08-08T20:40:33.470Z,100628.84
2022-08-08T20:43:16.228Z,100656.06
2022-08-08T20:45:57.270Z,100636.78
2022-08-08T20:48:29.227Z,100630.66
2022-08-08T20:50:56.299Z,100625.41
2022-08-08T20:53:58.125Z,100643.84
2022-08-08T20:56:10.458Z,100632.44
2022-08-08T20:58:47.981Z,100638.66
2022-08-08T21:01:20.085Z,100609.84
2022-08-08T21:03:59.758Z,100630.78
2022-08-08T21:06:52.183Z,100638.63
2022-08-08T21:09:16.209Z,100553.03
2022-08-08T21:11:51.856Z,100619.47
2022-08-08T21:14:30.405Z,100635.22
2022-08-08T21:17:06.394Z,100487.53
2022-08-08T21:19:45.925Z,100636.06
2022-08-08T21:22:15.649Z,100624.66
2022-08-08T21:24:52.941Z,100613.31
2022-08-08T21:28:06.516Z,100550.47
2022-08-08T21:30:19.300Z,100624.75
2022-08-08T21:32:51.178Z,100616.97
2022-08-08T21:36:18.258Z,100581.16
2022-08-08T21:38:11.821Z,100629.22
2022-08-08T21:40:55.583Z,100660.72
2022-08-08T21:43:34.275Z,100658.13
2022-08-08T21:48:20.427Z,100662.53
2022-08-08T21:48:55.409Z,100603.09
2022-08-08T21:54:16.871Z,100685.34
2022-08-08T21:54:35.172Z,100736.16
2022-08-08T21:57:03.277Z,100697.72
2022-08-08T22:00:01.511Z,100767.69
2022-08-08T22:02:22.807Z,100739.66
2022-08-08T22:04:52.982Z,100713.38
2022-08-08T22:07:20.223Z,100643.47
2022-08-08T22:09:53.334Z,100729.13
2022-08-08T22:12:20.295Z,100733.50
2022-08-08T22:14:49.959Z,100706.34
2022-08-08T22:17:19.138Z,100683.53
2022-08-08T22:20:11.407Z,100630.25
2022-08-08T22:22:36.097Z,100706.19
2022-08-08T22:25:12.510Z,100507.88
2022-08-08T22:28:03.704Z,100685.28
2022-08-08T22:30:41.529Z,100673.94
2022-08-08T22:34:10.831Z,100658.19
2022-08-08T22:36:04.784Z,100629.38
2022-08-08T22:38:48.961Z,100559.44
2022-08-08T22:41:21.787Z,100625.94
2022-08-08T22:44:01.193Z,100496.56
2022-08-08T22:46:33.124Z,100569.97
2022-08-08T22:49:00.547Z,100561.22
2022-08-08T22:51:29.283Z,100608.47
2022-08-08T22:54:33.780Z,100634.72
2022-08-08T22:56:50.188Z,100619.00
2022-08-08T22:59:18.602Z,100552.59
2022-08-08T23:02:02.371Z,100622.53
2022-08-08T23:04:32.629Z,100557.81
2022-08-08T23:07:02.799Z,100584.03
2022-08-08T23:09:31.264Z,100629.50
2022-08-08T23:12:29.153Z,100518.50
2022-08-08T23:14:56.380Z,100535.09
2022-08-08T23:17:30.127Z,100618.97
2022-08-08T23:19:57.260Z,100559.53
2022-08-08T23:22:24.254Z,100510.63
2022-08-08T23:24:51.754Z,100544.69
2022-08-08T23:27:46.484Z,100552.63
2022-08-08T23:30:09.259Z,100610.28
2022-08-08T23:32:44.025Z,100630.47
2022-08-08T23:35:12.609Z,100549.16
2022-08-08T23:38:01.109Z,100568.41
2022-08-08T23:40:30.941Z,100666.34
2022-08-08T23:42:58.200Z,100657.59
2022-08-08T23:49:04.183Z,100679.50
2022-08-08T23:49:04.330Z,100675.06
2022-08-08T23:51:03.947Z,100683.00
2022-08-08T23:54:05.781Z,100697.03
2022-08-08T23:56:23.855Z,100655.91
2022-08-08T23:58:59.511Z,100683.00
